Terminal Aerodrome Forecast
Issued by NWS

Home | Current Version | Previous Version | Text Only | Print | Product List | Glossary On
Versions: 1 2 3 4 5 6 7 8 9 10 11 12 13 14
000
FTUS46 KLOX 032331
TAFBUR
TAF
KBUR 032331Z 0400/0424 17009KT P6SM SCT200
     FM040200 12007KT P6SM SCT200
     FM040500 VRB03KT P6SM SCT200
     FM042000 18009KT P6SM SCT150=

USA.gov is the U.S. government's official web portal to all federal, state and local government web resources and services.